Impacts TAF Board
For situational awareness. Not to be used for flight planning purposes.
IDs:

KCLT - Charlotte/Douglas In, NC, US

Issued at 0946 UTC 16 Feb 2019
Updated at 1109 UTC 16 Feb 2019
Potential Impact None Slight Moderate High
Time<<17/12Z 17/13Z 17/14Z 17/15Z 17/16Z 17/17Z 17/18Z 17/19Z 17/20Z 17/21Z 17/22Z 17/23Z 18/00Z
Type
VIS
CIG
Cover
FltCat
WX
WDir
WSpd
WGst
Raw TAF
KCLT 160946Z 1610/1712 13004KT 2SM SHRA BR OVC003
  FM161300 04010G16KT 4SM -SHRA BR OVC005
  FM161900 03011KT P6SM OVC010
  FM170700 05006KT P6SM BKN026
  PROB30 1711/1712 4SM -RADZ OVC007


METAR Board
Radar Display
Forecast Discussion
For situational awareness. Not to be used for flight planning purposes.